createdAt,value
2023-10-23T00:01:38.000Z,15.01
2023-10-23T00:04:04.605Z,14.54
2023-10-23T00:06:31.271Z,14.66
2023-10-23T00:08:57.757Z,14.77
2023-10-23T00:11:24.190Z,14.78
2023-10-23T00:13:50.637Z,14.79
2023-10-23T00:16:17.140Z,14.69
2023-10-23T00:18:43.664Z,14.44
2023-10-23T00:21:10.150Z,14.25
2023-10-23T00:23:36.701Z,14.10
2023-10-23T00:26:03.127Z,14.14
2023-10-23T00:28:29.542Z,14.06
2023-10-23T00:30:56.090Z,14.15
2023-10-23T00:33:22.716Z,14.21
2023-10-23T00:35:49.252Z,14.14
2023-10-23T00:38:15.712Z,13.87
2023-10-23T00:40:42.220Z,13.78
2023-10-23T00:43:08.785Z,13.83
2023-10-23T00:45:35.350Z,13.79
2023-10-23T00:48:01.829Z,13.87
2023-10-23T00:50:28.292Z,13.77
2023-10-23T00:52:54.760Z,13.84
2023-10-23T00:55:21.235Z,13.92
2023-10-23T00:57:47.711Z,14.23
2023-10-23T01:00:14.315Z,14.19
2023-10-23T01:02:40.923Z,14.02
2023-10-23T01:05:07.420Z,13.88
2023-10-23T01:07:33.855Z,14.19
2023-10-23T01:10:03.431Z,13.90
2023-10-23T01:12:29.925Z,13.90
2023-10-23T01:14:56.401Z,13.77
2023-10-23T01:17:22.963Z,13.91
2023-10-23T01:22:33.392Z,14.15
2023-10-23T01:25:00.028Z,14.14
2023-10-23T01:27:26.518Z,13.78
2023-10-23T01:29:52.969Z,13.85
2023-10-23T01:32:19.424Z,14.07
2023-10-23T01:34:45.963Z,14.04
2023-10-23T01:37:12.421Z,13.78
2023-10-23T01:39:38.881Z,13.95
2023-10-23T01:42:05.362Z,14.06
2023-10-23T01:44:31.816Z,14.16
2023-10-23T01:46:58.249Z,13.99
2023-10-23T01:49:24.678Z,14.17
2023-10-23T01:51:51.165Z,14.22
2023-10-23T01:54:17.727Z,13.99
2023-10-23T01:56:44.185Z,14.41
2023-10-23T01:59:10.645Z,13.93
2023-10-23T02:01:37.155Z,14.29
2023-10-23T02:04:03.857Z,14.35
2023-10-23T02:06:30.442Z,14.52
2023-10-23T02:08:56.938Z,14.64
2023-10-23T02:11:23.387Z,14.66
2023-10-23T02:13:49.856Z,14.38
2023-10-23T02:16:16.370Z,14.33
2023-10-23T02:18:42.929Z,14.31
2023-10-23T02:21:09.517Z,14.54
2023-10-23T02:23:48.799Z,14.64
2023-10-23T02:26:20.050Z,14.34
2023-10-23T02:28:46.483Z,14.12
2023-10-23T02:31:13.113Z,13.94
2023-10-23T02:33:39.615Z,14.00
2023-10-23T02:36:06.169Z,13.89
2023-10-23T02:38:32.660Z,13.91
2023-10-23T02:40:59.121Z,14.31
2023-10-23T02:43:25.611Z,14.45
2023-10-23T02:45:52.225Z,14.52
2023-10-23T02:48:18.877Z,14.21
2023-10-23T02:50:45.355Z,14.15
2023-10-23T02:53:11.797Z,13.99
2023-10-23T02:55:38.265Z,14.00
2023-10-23T02:58:04.768Z,13.95
2023-10-23T03:00:31.270Z,14.00
2023-10-23T03:02:57.927Z,13.96
2023-10-23T03:05:24.431Z,13.93
2023-10-23T03:07:50.878Z,13.80
2023-10-23T03:10:17.348Z,13.79
2023-10-23T03:12:43.833Z,13.68
2023-10-23T03:15:10.302Z,13.60
2023-10-23T03:17:36.846Z,13.57
2023-10-23T03:20:03.354Z,13.40
2023-10-23T03:22:29.810Z,13.56
2023-10-23T03:24:56.260Z,13.72
2023-10-23T03:27:22.717Z,13.74
2023-10-23T03:29:49.225Z,14.07
2023-10-23T03:32:15.650Z,14.32
2023-10-23T03:34:42.144Z,14.45
2023-10-23T03:37:08.591Z,14.56
2023-10-23T03:39:35.246Z,14.68
2023-10-23T03:42:02.451Z,14.41
2023-10-23T03:44:28.922Z,14.18
2023-10-23T03:46:55.407Z,14.13
2023-10-23T03:49:21.859Z,13.94
2023-10-23T03:51:48.364Z,14.31
2023-10-23T03:54:14.895Z,14.12
2023-10-23T03:56:41.400Z,14.06
2023-10-23T03:59:07.863Z,14.18
2023-10-23T04:01:34.395Z,13.83
2023-10-23T04:04:00.989Z,13.81
2023-10-23T04:06:27.502Z,14.32
2023-10-23T04:08:54.028Z,14.06
2023-10-23T04:11:20.468Z,13.72
2023-10-23T04:13:46.950Z,14.01
2023-10-23T04:16:13.824Z,13.68
2023-10-23T04:18:40.459Z,13.87
2023-10-23T04:21:07.044Z,13.92
2023-10-23T04:23:33.484Z,13.99
2023-10-23T04:25:59.943Z,14.28
2023-10-23T04:28:26.412Z,14.13
2023-10-23T04:30:53.048Z,14.46
2023-10-23T04:33:19.567Z,14.34
2023-10-23T04:35:47.663Z,14.28
2023-10-23T04:38:15.175Z,14.24
2023-10-23T04:40:41.647Z,14.17
2023-10-23T04:43:08.062Z,14.33
2023-10-23T04:45:34.559Z,14.54
2023-10-23T04:48:01.065Z,14.48
2023-10-23T04:50:27.541Z,14.31
2023-10-23T04:52:53.960Z,14.14
2023-10-23T04:55:20.451Z,14.16
2023-10-23T04:57:47.021Z,14.25
2023-10-23T05:00:13.530Z,14.32
2023-10-23T05:02:40.041Z,14.21
2023-10-23T05:05:06.536Z,14.27
2023-10-23T05:07:33.391Z,14.52
2023-10-23T05:09:59.926Z,14.26
2023-10-23T05:12:26.609Z,14.17
2023-10-23T05:14:53.107Z,14.13
2023-10-23T05:17:19.609Z,14.21
2023-10-23T05:19:46.043Z,14.24
2023-10-23T05:22:12.489Z,14.17
2023-10-23T05:24:39.024Z,13.70
2023-10-23T05:27:05.452Z,13.62
2023-10-23T05:29:31.890Z,14.05
2023-10-23T05:31:58.407Z,13.69
2023-10-23T05:34:24.858Z,13.64
2023-10-23T05:36:51.355Z,13.75
2023-10-23T05:39:17.847Z,13.83
2023-10-23T05:41:44.289Z,13.77
2023-10-23T05:44:10.738Z,13.95
2023-10-23T05:46:37.254Z,13.96
2023-10-23T05:49:03.788Z,13.99
2023-10-23T05:51:30.295Z,14.00
2023-10-23T05:53:56.824Z,13.55
2023-10-23T05:56:23.238Z,13.77
2023-10-23T05:58:49.691Z,13.95
2023-10-23T06:01:16.199Z,13.76
2023-10-23T06:03:42.709Z,13.87
2023-10-23T06:06:09.219Z,14.04
2023-10-23T06:08:35.671Z,14.23
2023-10-23T06:11:02.142Z,14.37
2023-10-23T06:13:28.594Z,14.43
2023-10-23T06:15:55.161Z,13.92
2023-10-23T06:18:24.833Z,13.78
2023-10-23T06:20:51.355Z,14.28
2023-10-23T06:23:17.805Z,14.05
2023-10-23T06:25:44.281Z,13.69
2023-10-23T06:28:10.723Z,13.86
2023-10-23T06:30:37.174Z,13.60
2023-10-23T06:33:03.745Z,13.63
2023-10-23T06:35:30.233Z,13.69
2023-10-23T06:37:58.057Z,13.78
2023-10-23T06:40:24.600Z,13.80
2023-10-23T06:42:51.023Z,13.46
2023-10-23T06:45:17.583Z,13.29
2023-10-23T06:47:44.176Z,13.59
2023-10-23T06:50:10.691Z,13.56
2023-10-23T06:52:37.135Z,13.86
2023-10-23T06:55:03.588Z,13.85
2023-10-23T06:57:30.019Z,13.65
2023-10-23T06:59:56.492Z,13.53
2023-10-23T07:02:23.072Z,13.53
2023-10-23T07:04:49.577Z,13.90
2023-10-23T07:07:28.529Z,13.76
2023-10-23T07:09:55.930Z,13.86
2023-10-23T07:12:22.461Z,13.75
2023-10-23T07:14:49.038Z,14.01
2023-10-23T07:17:15.541Z,14.38
2023-10-23T07:19:42.000Z,13.94
2023-10-23T07:22:08.453Z,14.07
2023-10-23T07:24:34.919Z,14.44
2023-10-23T07:27:01.432Z,14.55
2023-10-23T07:29:27.975Z,14.81
2023-10-23T07:31:54.528Z,15.01
2023-10-23T07:34:21.004Z,15.05
2023-10-23T07:36:47.567Z,15.22
2023-10-23T07:39:14.055Z,15.25
2023-10-23T07:41:40.510Z,15.30
2023-10-23T07:44:06.999Z,15.39
2023-10-23T07:46:33.645Z,15.49
2023-10-23T07:49:00.581Z,15.20
2023-10-23T07:51:27.093Z,15.16
2023-10-23T07:53:53.529Z,15.30
2023-10-23T07:56:20.030Z,15.52
2023-10-23T07:58:46.510Z,15.34
2023-10-23T08:01:13.096Z,15.21
2023-10-23T08:03:39.952Z,14.84
2023-10-23T08:06:06.793Z,14.35
2023-10-23T08:08:33.377Z,14.31
2023-10-23T08:10:59.838Z,14.74
2023-10-23T08:13:26.270Z,15.00
2023-10-23T08:15:53.995Z,14.90
2023-10-23T08:18:36.727Z,14.92
2023-10-23T08:21:08.087Z,14.76
2023-10-23T08:23:34.760Z,15.12
2023-10-23T08:26:01.249Z,15.34
2023-10-23T08:28:30.437Z,15.40
2023-10-23T08:31:01.583Z,15.67
2023-10-23T08:33:28.328Z,15.78
2023-10-23T08:35:54.883Z,15.83
2023-10-23T08:38:21.341Z,15.87
2023-10-23T08:40:47.824Z,15.60
2023-10-23T08:43:14.406Z,15.77
2023-10-23T08:45:41.048Z,15.84
2023-10-23T08:48:07.552Z,16.14
2023-10-23T08:50:34.016Z,16.12
2023-10-23T08:53:11.666Z,16.18
2023-10-23T08:55:38.147Z,16.28
2023-10-23T08:58:04.719Z,16.24
2023-10-23T09:00:31.243Z,16.51
2023-10-23T09:02:57.797Z,16.27
2023-10-23T09:05:24.445Z,16.57
2023-10-23T09:07:51.041Z,16.31
2023-10-23T09:10:17.663Z,16.53
2023-10-23T09:12:44.202Z,16.29
2023-10-23T09:15:10.665Z,16.79
2023-10-23T09:17:37.156Z,16.56
2023-10-23T09:20:03.770Z,16.49
2023-10-23T09:22:30.255Z,15.61
2023-10-23T09:24:56.751Z,15.71
2023-10-23T09:27:23.368Z,16.51
2023-10-23T09:29:49.944Z,16.37
2023-10-23T09:32:16.454Z,16.62
2023-10-23T09:34:42.926Z,16.58
2023-10-23T09:37:09.418Z,16.77
2023-10-23T09:39:35.931Z,17.12
2023-10-23T09:42:02.369Z,16.38
2023-10-23T09:44:28.909Z,16.78
2023-10-23T09:46:55.383Z,16.79
2023-10-23T09:49:22.199Z,16.50
2023-10-23T09:51:48.838Z,16.19
2023-10-23T09:54:15.381Z,16.63
2023-10-23T09:56:41.811Z,16.88
2023-10-23T09:59:08.276Z,16.90
2023-10-23T10:01:34.814Z,16.87
2023-10-23T10:04:01.525Z,17.16
2023-10-23T10:06:28.027Z,17.16
2023-10-23T10:08:54.486Z,17.50
2023-10-23T10:11:20.941Z,17.28
2023-10-23T10:13:47.418Z,17.37
2023-10-23T10:16:13.968Z,17.27
2023-10-23T10:18:40.476Z,17.38
2023-10-23T10:21:06.943Z,17.58
2023-10-23T10:23:33.409Z,17.42
2023-10-23T10:25:59.853Z,17.34
2023-10-23T10:28:26.419Z,17.25
2023-10-23T10:30:52.996Z,17.38
2023-10-23T10:34:25.693Z,17.60
2023-10-23T10:36:06.067Z,17.64
2023-10-23T10:38:32.788Z,17.96
2023-10-23T10:40:59.323Z,18.07
2023-10-23T10:43:25.801Z,18.18
2023-10-23T10:45:52.259Z,18.23
2023-10-23T10:48:18.760Z,17.96
2023-10-23T10:50:45.198Z,17.96
2023-10-23T10:53:11.783Z,18.06
2023-10-23T10:55:38.281Z,18.12
2023-10-23T10:58:04.845Z,18.08
2023-10-23T11:00:31.357Z,18.13
2023-10-23T11:02:57.915Z,18.07
2023-10-23T11:05:24.518Z,18.22
2023-10-23T11:07:50.947Z,17.58
2023-10-23T11:10:17.421Z,18.11
2023-10-23T11:12:43.934Z,17.55
2023-10-23T11:15:10.511Z,18.04
2023-10-23T11:17:37.027Z,18.27
2023-10-23T11:20:03.482Z,18.41
2023-10-23T11:22:29.942Z,18.35
2023-10-23T11:24:56.507Z,18.41
2023-10-23T11:27:23.006Z,18.55
2023-10-23T11:29:49.444Z,18.40
2023-10-23T11:32:16.161Z,18.17
2023-10-23T11:34:42.662Z,18.50
2023-10-23T11:37:09.272Z,18.48
2023-10-23T11:39:35.765Z,18.70
2023-10-23T11:42:02.299Z,18.90
2023-10-23T11:44:28.878Z,18.87
2023-10-23T11:46:55.398Z,18.92
2023-10-23T11:49:22.051Z,18.95
2023-10-23T11:51:48.684Z,18.99
2023-10-23T11:54:15.243Z,19.06
2023-10-23T11:56:41.699Z,18.61
2023-10-23T11:59:08.144Z,18.69
2023-10-23T12:01:34.752Z,19.09
2023-10-23T12:04:01.384Z,18.77
2023-10-23T12:06:27.912Z,18.38
2023-10-23T12:08:56.146Z,18.73
2023-10-23T12:11:23.934Z,19.03
2023-10-23T12:13:50.601Z,19.03
2023-10-23T12:16:17.207Z,19.10
2023-10-23T12:18:43.740Z,18.93
2023-10-23T12:21:10.283Z,18.84
2023-10-23T12:23:36.739Z,18.89
2023-10-23T12:26:03.208Z,19.04
2023-10-23T12:28:29.777Z,19.05
2023-10-23T12:30:56.372Z,19.15
2023-10-23T12:33:28.422Z,19.21
2023-10-23T12:35:59.142Z,19.03
2023-10-23T12:38:25.617Z,18.87
2023-10-23T12:40:52.166Z,18.98
2023-10-23T12:43:18.721Z,18.73
2023-10-23T12:45:45.323Z,18.48
2023-10-23T12:48:11.875Z,18.61
2023-10-23T12:50:38.390Z,18.80
2023-10-23T12:53:04.835Z,19.02
2023-10-23T12:55:31.589Z,19.16
2023-10-23T12:57:58.064Z,19.25
2023-10-23T13:00:24.567Z,19.07
2023-10-23T13:02:51.131Z,19.14
2023-10-23T13:05:17.690Z,18.79
2023-10-23T13:07:44.207Z,19.00
2023-10-23T13:10:10.810Z,19.07
2023-10-23T13:12:37.408Z,19.12
2023-10-23T13:15:03.969Z,18.93
2023-10-23T13:17:30.526Z,19.01
2023-10-23T13:19:57.047Z,18.98
2023-10-23T13:22:23.581Z,19.36
2023-10-23T13:24:50.125Z,19.22
2023-10-23T13:27:16.846Z,18.97
2023-10-23T13:29:43.371Z,19.21
2023-10-23T13:32:09.894Z,19.27
2023-10-23T13:34:36.375Z,19.31
2023-10-23T13:37:03.332Z,18.84
2023-10-23T13:39:29.827Z,19.10
2023-10-23T13:41:56.347Z,18.85
2023-10-23T13:44:22.831Z,18.45
2023-10-23T13:46:49.434Z,18.76
2023-10-23T13:49:16.126Z,18.80
2023-10-23T13:51:42.844Z,18.92
2023-10-23T13:54:09.347Z,18.91
2023-10-23T13:56:35.850Z,19.02
2023-10-23T13:59:02.321Z,18.90
2023-10-23T14:01:28.847Z,18.73
2023-10-23T14:03:55.474Z,18.90
2023-10-23T14:06:22.231Z,18.48
2023-10-23T14:09:39.012Z,18.76
2023-10-23T14:12:01.131Z,18.83
2023-10-23T14:14:21.560Z,17.88
2023-10-23T14:16:48.021Z,18.44
2023-10-23T14:19:20.063Z,18.65
2023-10-23T14:21:52.819Z,18.56
2023-10-23T14:24:19.373Z,18.47
2023-10-23T14:26:45.930Z,18.60
2023-10-23T14:29:12.385Z,18.51
2023-10-23T14:31:38.940Z,18.34
2023-10-23T14:34:05.558Z,18.44
2023-10-23T14:36:32.071Z,18.27
2023-10-23T14:38:58.632Z,18.12
2023-10-23T14:41:25.102Z,18.45
2023-10-23T14:43:51.587Z,18.47
2023-10-23T14:46:18.092Z,18.51
2023-10-23T14:48:44.582Z,18.48
2023-10-23T14:51:11.052Z,18.15
2023-10-23T14:53:37.584Z,18.24
2023-10-23T14:56:04.021Z,18.24
2023-10-23T14:58:31.178Z,18.26
2023-10-23T15:00:58.873Z,18.05
2023-10-23T15:03:25.417Z,18.26
2023-10-23T15:05:51.853Z,18.09
2023-10-23T15:08:18.359Z,18.17
2023-10-23T15:10:44.824Z,18.24
2023-10-23T15:13:11.316Z,18.21
2023-10-23T15:15:37.860Z,18.05
2023-10-23T15:18:04.381Z,17.99
2023-10-23T15:20:30.846Z,18.15
2023-10-23T15:22:57.547Z,18.21
2023-10-23T15:25:25.308Z,18.27
2023-10-23T15:27:51.820Z,18.26
2023-10-23T15:30:18.397Z,18.02
2023-10-23T15:32:44.888Z,17.99
2023-10-23T15:35:11.580Z,17.90
2023-10-23T15:37:38.035Z,17.99
2023-10-23T15:40:04.575Z,17.62
2023-10-23T15:42:31.055Z,17.66
2023-10-23T15:44:57.576Z,17.81
2023-10-23T15:47:24.185Z,17.73
2023-10-23T15:49:50.692Z,17.78
2023-10-23T15:52:17.133Z,17.34
2023-10-23T15:54:43.618Z,17.32
2023-10-23T15:57:10.766Z,17.54
2023-10-23T15:59:43.848Z,17.53
2023-10-23T16:02:10.384Z,17.31
2023-10-23T16:04:40.829Z,17.04
2023-10-23T16:07:08.926Z,16.86
2023-10-23T16:09:35.433Z,17.25
2023-10-23T16:12:10.077Z,17.21
2023-10-23T16:14:53.540Z,17.30
2023-10-23T16:17:22.917Z,17.36
2023-10-23T16:19:49.402Z,17.30
2023-10-23T16:22:15.894Z,17.37
2023-10-23T16:24:42.601Z,17.46
2023-10-23T16:27:09.229Z,17.43
2023-10-23T16:29:35.727Z,17.63
2023-10-23T16:32:02.288Z,17.52
2023-10-23T16:34:28.914Z,17.41
2023-10-23T16:36:55.556Z,17.40
2023-10-23T16:39:22.093Z,17.51
2023-10-23T16:41:48.522Z,17.55
2023-10-23T16:44:14.980Z,17.46
2023-10-23T16:46:41.477Z,17.54
2023-10-23T16:49:07.969Z,17.55
2023-10-23T16:51:34.461Z,17.46
2023-10-23T16:54:00.898Z,17.35
2023-10-23T16:56:27.338Z,17.15
2023-10-23T16:58:53.854Z,17.42
2023-10-23T17:01:20.423Z,17.42
2023-10-23T17:03:46.993Z,17.41
2023-10-23T17:06:13.683Z,17.38
2023-10-23T17:08:40.184Z,17.25
2023-10-23T17:11:06.625Z,17.37
2023-10-23T17:13:33.753Z,17.18
2023-10-23T17:16:00.397Z,17.32
2023-10-23T17:18:26.879Z,17.36
2023-10-23T17:20:53.339Z,17.23
2023-10-23T17:23:19.846Z,17.37
2023-10-23T17:25:46.281Z,17.38
2023-10-23T17:28:12.741Z,17.36
2023-10-23T17:30:39.220Z,17.39
2023-10-23T17:33:05.727Z,17.20
2023-10-23T17:35:32.238Z,17.24
2023-10-23T17:38:00.442Z,17.27
2023-10-23T17:40:27.462Z,17.45
2023-10-23T17:42:53.977Z,17.45
2023-10-23T17:45:20.420Z,17.26
2023-10-23T17:47:46.908Z,16.89
2023-10-23T17:50:13.413Z,17.15
2023-10-23T17:52:40.040Z,17.23
2023-10-23T17:55:06.658Z,17.35
2023-10-23T17:57:33.146Z,17.15
2023-10-23T17:59:59.633Z,17.22
2023-10-23T18:02:26.103Z,17.40
2023-10-23T18:04:52.581Z,17.38
2023-10-23T18:07:19.111Z,17.40
2023-10-23T18:09:45.628Z,17.14
2023-10-23T18:12:26.750Z,16.57
2023-10-23T18:14:57.982Z,17.06
2023-10-23T18:17:24.420Z,16.82
2023-10-23T18:19:50.981Z,16.78
2023-10-23T18:22:17.518Z,17.26
2023-10-23T18:24:44.102Z,17.00
2023-10-23T18:27:10.649Z,16.91
2023-10-23T18:29:37.113Z,16.91
2023-10-23T18:32:03.599Z,16.79
2023-10-23T18:34:30.176Z,16.98
2023-10-23T18:36:56.653Z,16.98
2023-10-23T18:39:23.193Z,17.04
2023-10-23T18:41:49.829Z,16.99
2023-10-23T18:44:16.392Z,17.03
2023-10-23T18:46:42.919Z,16.96
2023-10-23T18:49:09.453Z,17.18
2023-10-23T18:51:35.918Z,17.04
2023-10-23T18:54:02.392Z,17.16
2023-10-23T18:56:28.860Z,17.10
2023-10-23T18:58:55.336Z,17.31
2023-10-23T19:01:21.917Z,17.19
2023-10-23T19:03:48.521Z,17.23
2023-10-23T19:06:14.964Z,17.32
2023-10-23T19:08:41.407Z,17.13
2023-10-23T19:11:07.892Z,17.06
2023-10-23T19:13:34.460Z,17.32
2023-10-23T19:16:01.054Z,17.35
2023-10-23T19:18:30.333Z,17.34
2023-10-23T19:20:57.789Z,17.37
2023-10-23T19:23:24.246Z,17.13
2023-10-23T19:25:50.780Z,17.20
2023-10-23T19:28:17.366Z,17.09
2023-10-23T19:30:43.853Z,17.22
2023-10-23T19:33:10.374Z,16.88
2023-10-23T19:35:36.823Z,17.14
2023-10-23T19:38:03.267Z,16.97
2023-10-23T19:40:29.893Z,17.09
2023-10-23T19:42:56.378Z,17.04
2023-10-23T19:45:22.835Z,17.10
2023-10-23T19:47:49.339Z,16.89
2023-10-23T19:50:15.853Z,17.07
2023-10-23T19:52:42.444Z,16.59
2023-10-23T19:55:45.211Z,16.38
2023-10-23T19:57:55.367Z,16.74
2023-10-23T20:00:21.826Z,16.66
2023-10-23T20:02:48.335Z,16.78
2023-10-23T20:05:14.829Z,16.67
2023-10-23T20:07:41.385Z,16.67
2023-10-23T20:10:07.881Z,16.26
2023-10-23T20:12:34.485Z,15.81
2023-10-23T20:15:00.956Z,15.76
2023-10-23T20:17:27.448Z,16.07
2023-10-23T20:19:53.994Z,15.55
2023-10-23T20:22:20.566Z,15.93
2023-10-23T20:24:47.106Z,16.22
2023-10-23T20:27:13.545Z,16.21
2023-10-23T20:29:40.134Z,16.36
2023-10-23T20:32:06.833Z,16.26
2023-10-23T20:34:33.391Z,16.30
2023-10-23T20:36:59.986Z,16.16
2023-10-23T20:39:26.642Z,16.26
2023-10-23T20:41:53.071Z,16.13
2023-10-23T20:44:19.550Z,16.06
2023-10-23T20:46:46.099Z,15.73
2023-10-23T20:49:12.672Z,16.24
2023-10-23T20:51:39.137Z,16.42
2023-10-23T20:54:05.575Z,16.49
2023-10-23T20:56:32.042Z,16.51
2023-10-23T20:58:58.532Z,16.25
2023-10-23T21:01:25.041Z,16.20
2023-10-23T21:03:51.594Z,16.33
2023-10-23T21:06:18.106Z,15.93
2023-10-23T21:08:44.548Z,16.32
2023-10-23T21:11:11.017Z,16.50
2023-10-23T21:13:37.521Z,16.03
2023-10-23T21:16:04.056Z,16.21
2023-10-23T21:18:30.511Z,16.04
2023-10-23T21:20:56.981Z,16.14
2023-10-23T21:23:23.468Z,16.23
2023-10-23T21:25:49.928Z,16.16
2023-10-23T21:28:16.385Z,16.42
2023-10-23T21:30:42.903Z,15.71
2023-10-23T21:33:09.375Z,15.59
2023-10-23T21:35:35.872Z,15.74
2023-10-23T21:38:02.312Z,15.24
2023-10-23T21:40:28.809Z,15.18
2023-10-23T21:42:55.286Z,15.00
2023-10-23T21:45:21.728Z,14.80
2023-10-23T21:47:48.228Z,14.35
2023-10-23T21:50:14.752Z,14.09
2023-10-23T21:52:41.246Z,14.23
2023-10-23T21:55:18.288Z,14.27
2023-10-23T21:57:45.746Z,14.19
2023-10-23T22:00:12.233Z,14.36
2023-10-23T22:02:38.778Z,14.48
2023-10-23T22:05:05.329Z,14.33
2023-10-23T22:07:31.946Z,14.56
2023-10-23T22:09:58.427Z,14.99
2023-10-23T22:12:24.913Z,15.28
2023-10-23T22:14:51.378Z,14.97
2023-10-23T22:17:17.874Z,15.28
2023-10-23T22:19:44.430Z,14.92
2023-10-23T22:22:11.050Z,15.38
2023-10-23T22:24:37.577Z,15.28
2023-10-23T22:27:04.092Z,15.71
2023-10-23T22:29:30.534Z,15.96
2023-10-23T22:31:57.073Z,15.92
2023-10-23T22:34:23.583Z,16.01
2023-10-23T22:37:55.708Z,16.14
2023-10-23T22:39:36.525Z,16.26
2023-10-23T22:42:02.991Z,16.32
2023-10-23T22:44:29.427Z,16.31
2023-10-23T22:46:55.973Z,16.46
2023-10-23T22:49:22.500Z,16.39
2023-10-23T22:51:48.950Z,16.43
2023-10-23T22:54:15.432Z,16.49
2023-10-23T22:56:41.870Z,16.39
2023-10-23T22:59:08.305Z,16.34
2023-10-23T23:01:34.905Z,16.40
2023-10-23T23:04:01.417Z,16.42
2023-10-23T23:06:27.893Z,16.38
2023-10-23T23:08:54.335Z,16.36
2023-10-23T23:11:20.801Z,16.22
2023-10-23T23:13:47.263Z,16.19
2023-10-23T23:16:13.740Z,16.10
2023-10-23T23:18:40.246Z,16.27
2023-10-23T23:21:06.692Z,15.81
2023-10-23T23:23:33.093Z,16.09
2023-10-23T23:25:59.545Z,15.70
2023-10-23T23:28:26.065Z,15.51
2023-10-23T23:30:52.561Z,15.60
2023-10-23T23:33:18.999Z,15.70
2023-10-23T23:35:45.472Z,15.95
2023-10-23T23:38:11.890Z,16.11
2023-10-23T23:40:38.371Z,15.97
2023-10-23T23:43:04.803Z,16.22
2023-10-23T23:45:31.265Z,16.30
2023-10-23T23:47:57.736Z,16.18
2023-10-23T23:50:24.211Z,15.99
2023-10-23T23:52:50.653Z,15.86
2023-10-23T23:55:17.122Z,15.50
2023-10-23T23:57:43.605Z,15.61
